Aérodrome :
LOGIN :

S'inscrire | Disclaimer

   EN    FR    IT 

 










Légende :    VFR   VFR Marginal   IFR   IFR Intensif   IFR Très Intensif
Visi : 
Plafond : 
>= 8 km
>= 3000ft
5 à 8 km
1000 à 3000 ft
1500m à 5 km
500 à 1000 ft
800 à 1500m
200 à 500 ft
< 800m
< 200 ft
Symboles :   Orages  Brouillard  Fortes neiges  Fortes précipitations  Vent > 20 kt
SIGMETs :   Divers  Orages  Givrage  Turbulence  Onde Orograph.  Cendres Volcan.






- Altitude de l'aérodrome : 220 ft
- Code IATA : CWL


EGFF - Cardiff Rhoose

DERNIER METAR :
  • 241820Z AUTO 28016KT 9999 FEW010 SCT018 BKN036 08/07 Q1007

METARs EXPIRÉS :
  • 241750Z AUTO 27018G28KT 9999 SCT009 BKN015 08/07 Q1006
  • 241720Z AUTO 27017G28KT 9999 BKN008 OVC011 09/08 Q1006
  • 241650Z AUTO 27020G31KT 9999 OVC012 09/08 Q1006
  • 241620Z AUTO 27021G33KT 9999 OVC012 09/08 Q1006
  • 241550Z 26021KT 8000 BKN012 OVC018 10/09 Q1005 REDZ
  • 241520Z 26021G32KT 7000 DZ FEW007 SCT010 BKN018 10/09 Q1006

TAF TAF EGFF
Valide du 24 à 18h jusqu'au 25 à 18h UTC


241707Z 2418/2518 28015G25KT 9999 FEW030
PROB30
TEMPO 2420/2502 7000 SHRA BKN014
TEMPO 2502/2518 7000 SHRA
PROB30
TEMPO 2505/2518 26020G35KT 4000 +SHRAGS BKN010 BKN016CB
ATIS : +44 1446 729 319



MET'MAP, la Météo Aéronautique d'un coup d'oeil ! - Copyright ORBIFLY Décembre 2007 - Disclaimer

ORBIFLY MET'MAP TEAM :

Programmation & Développement : Alexandra Zaïnal
Sur une idée originale de : Baudouin d'Aumeries
Assistance à la programmation : Marc-Olivier Méhu
Soutien technique & logistique : Manuel Goepfert

Contact : metmap@orbifly.com




SOURCES & CREDITS :

   NOAA